createdAt,value
2018-08-17T00:00:09.273Z,62.01
2018-08-17T00:02:38.812Z,62.03
2018-08-17T00:05:07.742Z,62.01
2018-08-17T00:07:36.590Z,62.10
2018-08-17T00:10:06.210Z,63.25
2018-08-17T00:12:35.451Z,63.76
2018-08-17T00:15:04.647Z,63.50
2018-08-17T00:17:34.148Z,62.71
2018-08-17T00:20:03.137Z,62.89
2018-08-17T00:22:32.274Z,63.27
2018-08-17T00:25:01.799Z,63.99
2018-08-17T00:27:30.991Z,63.82
2018-08-17T00:30:00.261Z,63.50
2018-08-17T00:32:29.364Z,62.16
2018-08-17T00:34:58.208Z,62.78
2018-08-17T00:37:27.004Z,62.40
2018-08-17T00:39:56.507Z,63.48
2018-08-17T00:42:25.595Z,63.89
2018-08-17T00:44:54.840Z,64.39
2018-08-17T00:47:24.263Z,65.31
2018-08-17T00:49:53.443Z,65.71
2018-08-17T00:52:22.630Z,66.03
2018-08-17T00:54:51.981Z,66.15
2018-08-17T00:57:20.812Z,65.80
2018-08-17T00:59:49.934Z,65.95
2018-08-17T01:02:18.939Z,66.24
2018-08-17T01:04:47.727Z,65.90
2018-08-17T01:07:17.158Z,65.44
2018-08-17T01:09:46.324Z,65.66
2018-08-17T01:12:15.123Z,65.78
2018-08-17T01:14:43.890Z,66.52
2018-08-17T01:17:12.934Z,66.36
2018-08-17T01:19:41.809Z,65.89
2018-08-17T01:22:10.872Z,65.82
2018-08-17T01:24:40.012Z,65.82
2018-08-17T01:27:09.165Z,65.11
2018-08-17T01:29:38.130Z,65.19
2018-08-17T01:32:06.862Z,64.79
2018-08-17T01:34:35.547Z,64.95
2018-08-17T01:37:04.356Z,65.01
2018-08-17T01:39:33.763Z,65.09
2018-08-17T01:42:02.745Z,64.12
2018-08-17T01:44:31.430Z,65.19
2018-08-17T01:47:00.250Z,64.92
2018-08-17T01:49:29.355Z,65.59
2018-08-17T01:51:58.311Z,65.98
2018-08-17T01:54:27.522Z,65.12
2018-08-17T01:56:56.160Z,65.62
2018-08-17T01:59:25.022Z,66.14
2018-08-17T02:01:53.952Z,66.06
2018-08-17T02:04:22.744Z,66.17
2018-08-17T02:06:51.466Z,66.37
2018-08-17T02:09:20.598Z,66.42
2018-08-17T02:11:49.412Z,67.22
2018-08-17T02:14:18.192Z,66.38
2018-08-17T02:16:47.651Z,66.46
2018-08-17T02:19:16.835Z,67.41
2018-08-17T02:21:45.700Z,67.50
2018-08-17T02:24:15.003Z,67.83
2018-08-17T02:26:43.867Z,67.19
2018-08-17T02:29:12.821Z,66.67
2018-08-17T02:31:41.630Z,66.36
2018-08-17T02:34:10.286Z,65.59
2018-08-17T02:36:39.076Z,65.01
2018-08-17T02:39:08.654Z,65.03
2018-08-17T02:41:37.866Z,65.70
2018-08-17T02:44:07.065Z,65.12
2018-08-17T02:46:36.301Z,65.44
2018-08-17T02:49:05.355Z,65.00
2018-08-17T02:51:34.270Z,66.28
2018-08-17T02:54:03.207Z,66.30
2018-08-17T02:56:31.887Z,65.62
2018-08-17T02:59:00.838Z,65.40
2018-08-17T03:01:29.882Z,65.68
2018-08-17T03:03:58.563Z,65.04
2018-08-17T03:06:27.240Z,66.18
2018-08-17T03:08:56.427Z,66.23
2018-08-17T03:11:25.393Z,67.06
2018-08-17T03:13:54.603Z,66.87
2018-08-17T03:16:24.027Z,67.15
2018-08-17T03:18:53.238Z,67.35
2018-08-17T03:21:22.066Z,67.02
2018-08-17T03:23:51.410Z,66.18
2018-08-17T03:26:20.286Z,64.99
2018-08-17T03:28:49.181Z,65.20
2018-08-17T03:31:18.386Z,65.12
2018-08-17T03:33:47.066Z,64.90
2018-08-17T03:36:15.798Z,64.88
2018-08-17T03:38:44.731Z,64.90
2018-08-17T03:41:13.534Z,67.10
2018-08-17T03:43:42.328Z,67.15
2018-08-17T03:46:11.638Z,67.83
2018-08-17T03:48:40.409Z,68.24
2018-08-17T03:51:09.195Z,67.86
2018-08-17T03:53:38.586Z,67.48
2018-08-17T03:56:07.774Z,68.06
2018-08-17T03:58:36.841Z,67.40
2018-08-17T04:01:05.920Z,67.63
2018-08-17T04:03:34.515Z,67.69
2018-08-17T04:06:03.216Z,67.99
2018-08-17T04:08:32.691Z,67.67
2018-08-17T04:11:01.666Z,67.57
2018-08-17T04:13:30.447Z,67.47
2018-08-17T04:15:59.560Z,67.29
2018-08-17T04:18:28.774Z,67.30
2018-08-17T04:20:57.481Z,66.15
2018-08-17T04:23:26.548Z,65.45
2018-08-17T04:25:55.510Z,65.35
2018-08-17T04:28:24.275Z,64.39
2018-08-17T04:30:53.357Z,64.04
2018-08-17T04:33:22.018Z,64.65
2018-08-17T04:35:50.754Z,64.96
2018-08-17T04:38:20.043Z,64.85
2018-08-17T04:40:48.829Z,64.53
2018-08-17T04:43:17.872Z,63.77
2018-08-17T04:45:47.090Z,63.01
2018-08-17T04:48:16.139Z,62.42
2018-08-17T04:50:44.951Z,61.18
2018-08-17T04:53:13.887Z,61.36
2018-08-17T04:55:42.485Z,60.76
2018-08-17T04:58:11.223Z,60.76
2018-08-17T05:00:40.140Z,60.64
2018-08-17T05:03:08.823Z,60.81
2018-08-17T05:05:37.534Z,60.72
2018-08-17T05:08:06.518Z,61.33
2018-08-17T05:10:35.247Z,61.15
2018-08-17T05:13:04.401Z,61.04
2018-08-17T05:15:33.742Z,60.75
2018-08-17T05:18:02.611Z,60.54
2018-08-17T05:20:31.286Z,60.63
2018-08-17T05:23:00.677Z,60.08
2018-08-17T05:25:29.791Z,60.18
2018-08-17T05:27:58.405Z,60.88
2018-08-17T05:30:27.683Z,61.16
2018-08-17T05:32:56.839Z,59.99
2018-08-17T05:35:25.538Z,60.35
2018-08-17T05:37:54.603Z,59.99
2018-08-17T05:40:23.699Z,59.90
2018-08-17T05:42:52.702Z,60.23
2018-08-17T05:45:22.747Z,60.43
2018-08-17T05:47:51.410Z,59.90
2018-08-17T05:50:20.621Z,59.21
2018-08-17T05:52:49.649Z,59.01
2018-08-17T05:55:18.701Z,58.97
2018-08-17T05:57:47.581Z,58.48
2018-08-17T06:00:16.998Z,58.30
2018-08-17T06:02:45.727Z,56.51
2018-08-17T06:05:14.531Z,56.32
2018-08-17T06:07:43.649Z,54.35
2018-08-17T06:10:12.556Z,53.73
2018-08-17T06:12:41.757Z,53.42
2018-08-17T06:15:11.279Z,52.24
2018-08-17T06:17:40.183Z,51.38
2018-08-17T06:20:09.563Z,48.46
2018-08-17T06:22:38.979Z,48.15
2018-08-17T06:25:09.906Z,48.50
2018-08-17T06:27:39.575Z,48.14
2018-08-17T06:30:11.995Z,49.45
2018-08-17T06:32:41.241Z,48.49
2018-08-17T06:35:11.270Z,47.56
2018-08-17T06:37:41.255Z,47.24
2018-08-17T06:40:10.798Z,47.75
2018-08-17T06:42:39.608Z,46.39
2018-08-17T06:45:10.003Z,46.52
2018-08-17T06:47:39.123Z,45.08
2018-08-17T06:50:09.628Z,44.05
2018-08-17T06:52:40.086Z,44.71
2018-08-17T06:55:10.164Z,44.67
2018-08-17T06:57:39.968Z,43.39
2018-08-17T07:00:12.206Z,43.99
2018-08-17T07:02:41.325Z,43.72
2018-08-17T07:05:09.988Z,42.79
2018-08-17T07:07:38.889Z,43.21
2018-08-17T07:10:09.168Z,42.18
2018-08-17T07:12:37.831Z,41.85
2018-08-17T07:15:07.306Z,41.69
2018-08-17T07:17:36.732Z,42.04
2018-08-17T07:20:06.808Z,41.17
2018-08-17T07:22:35.620Z,41.39
2018-08-17T07:25:05.282Z,40.80
2018-08-17T07:27:33.945Z,40.39
2018-08-17T07:30:02.695Z,41.05
2018-08-17T07:32:32.228Z,41.45
2018-08-17T07:35:00.952Z,41.68
2018-08-17T07:37:29.546Z,40.64
2018-08-17T07:39:58.789Z,42.14
2018-08-17T07:42:27.861Z,41.52
2018-08-17T07:44:56.623Z,42.69
2018-08-17T07:47:25.744Z,41.17
2018-08-17T07:49:54.605Z,40.97
2018-08-17T07:52:23.526Z,41.06
2018-08-17T07:54:52.853Z,39.97
2018-08-17T07:57:21.525Z,39.55
2018-08-17T07:59:50.623Z,39.98
2018-08-17T08:02:19.842Z,39.94
2018-08-17T08:04:48.531Z,39.92
2018-08-17T08:07:17.284Z,38.15
2018-08-17T08:09:46.374Z,37.70
2018-08-17T08:12:15.294Z,37.39
2018-08-17T08:14:44.177Z,36.64
2018-08-17T08:17:13.547Z,35.53
2018-08-17T08:19:42.580Z,35.40
2018-08-17T08:22:11.472Z,35.33
2018-08-17T08:24:40.753Z,35.46
2018-08-17T08:27:09.655Z,34.44
2018-08-17T08:29:38.659Z,34.75
2018-08-17T08:32:07.686Z,35.03
2018-08-17T08:34:36.299Z,37.12
2018-08-17T08:37:05.046Z,36.75
2018-08-17T08:39:33.927Z,35.45
2018-08-17T08:42:02.928Z,34.35
2018-08-17T08:44:31.715Z,35.32
2018-08-17T08:47:01.047Z,34.49
2018-08-17T08:49:29.791Z,34.23
2018-08-17T08:51:58.759Z,33.97
2018-08-17T08:54:28.003Z,35.00
2018-08-17T08:56:56.991Z,34.35
2018-08-17T08:59:25.946Z,34.14
2018-08-17T09:01:54.995Z,33.79
2018-08-17T09:04:23.725Z,33.50
2018-08-17T09:06:52.387Z,32.96
2018-08-17T09:09:21.559Z,33.10
2018-08-17T09:11:50.546Z,33.77
2018-08-17T09:14:19.506Z,33.71
2018-08-17T09:16:48.806Z,33.70
2018-08-17T09:19:17.747Z,33.46
2018-08-17T09:21:46.380Z,33.11
2018-08-17T09:24:15.776Z,32.76
2018-08-17T09:26:44.705Z,32.82
2018-08-17T09:29:13.592Z,31.69
2018-08-17T09:31:42.206Z,31.59
2018-08-17T09:34:10.980Z,32.31
2018-08-17T09:36:39.641Z,32.64
2018-08-17T09:39:10.030Z,32.57
2018-08-17T09:41:38.983Z,31.97
2018-08-17T09:44:08.387Z,32.27
2018-08-17T09:46:38.344Z,31.38
2018-08-17T09:49:07.313Z,30.64
2018-08-17T09:51:37.937Z,31.21
2018-08-17T09:54:08.079Z,30.08
2018-08-17T09:56:37.020Z,29.88
2018-08-17T09:59:06.447Z,29.29
2018-08-17T10:01:40.246Z,29.27
2018-08-17T10:04:14.465Z,27.77
2018-08-17T10:06:48.219Z,28.29
2018-08-17T10:09:22.613Z,27.91
2018-08-17T10:11:52.538Z,26.94
2018-08-17T10:14:21.811Z,26.91
2018-08-17T10:16:51.040Z,27.95
2018-08-17T10:19:19.892Z,27.39
2018-08-17T10:21:54.897Z,27.18
2018-08-17T10:24:24.410Z,24.23
2018-08-17T10:26:54.827Z,24.18
2018-08-17T10:29:24.096Z,24.56
2018-08-17T10:31:52.777Z,24.03
2018-08-17T10:34:21.908Z,24.15
2018-08-17T10:36:50.612Z,24.70
2018-08-17T10:39:19.335Z,23.79
2018-08-17T10:41:48.705Z,22.37
2018-08-17T10:44:17.571Z,19.29
2018-08-17T10:46:46.510Z,19.29
2018-08-17T10:49:15.504Z,19.63
2018-08-17T10:51:44.509Z,20.30
2018-08-17T10:54:13.815Z,19.67
2018-08-17T10:56:42.614Z,18.45
2018-08-17T10:59:11.588Z,17.42
2018-08-17T11:01:44.535Z,16.71
2018-08-17T11:04:13.365Z,19.23
2018-08-17T11:06:42.107Z,19.50
2018-08-17T11:09:12.018Z,20.05
2018-08-17T11:11:42.701Z,20.96
2018-08-17T11:14:11.601Z,21.16
2018-08-17T11:16:41.098Z,21.11
2018-08-17T11:19:09.990Z,21.04
2018-08-17T11:21:39.083Z,20.48
2018-08-17T11:24:08.490Z,20.62
2018-08-17T11:26:38.236Z,22.50
2018-08-17T11:29:07.184Z,23.76
2018-08-17T11:31:36.136Z,26.19
2018-08-17T11:34:04.848Z,27.20
2018-08-17T11:36:33.452Z,27.82
2018-08-17T11:39:02.668Z,28.71
2018-08-17T11:41:31.779Z,29.59
2018-08-17T11:44:03.911Z,32.62
2018-08-17T11:46:35.786Z,35.81
2018-08-17T11:49:04.900Z,38.14
2018-08-17T11:51:33.862Z,36.67
2018-08-17T11:54:02.915Z,36.13
2018-08-17T11:56:31.819Z,35.71
2018-08-17T11:59:00.806Z,36.12
2018-08-17T12:01:29.644Z,35.78
2018-08-17T12:03:58.815Z,35.74
2018-08-17T12:06:27.405Z,36.56
2018-08-17T12:08:56.302Z,36.51
2018-08-17T12:11:25.488Z,35.05
2018-08-17T12:13:54.254Z,35.09
2018-08-17T12:16:23.304Z,35.55
2018-08-17T12:18:52.815Z,36.45
2018-08-17T12:21:21.806Z,36.41
2018-08-17T12:23:50.591Z,35.64
2018-08-17T12:26:19.514Z,36.24
2018-08-17T12:28:48.277Z,35.95
2018-08-17T12:31:17.002Z,36.78
2018-08-17T12:33:45.893Z,36.60
2018-08-17T12:36:14.700Z,37.42
2018-08-17T12:38:43.777Z,37.64
2018-08-17T12:41:12.745Z,37.48
2018-08-17T12:43:41.543Z,36.82
2018-08-17T12:46:10.706Z,36.30
2018-08-17T12:48:40.008Z,37.07
2018-08-17T12:51:09.214Z,36.12
2018-08-17T12:53:38.013Z,36.08
2018-08-17T12:56:07.350Z,34.58
2018-08-17T12:58:36.108Z,34.58
2018-08-17T13:01:04.825Z,33.01
2018-08-17T13:03:33.895Z,33.08
2018-08-17T13:06:02.697Z,31.40
2018-08-17T13:08:31.756Z,29.53
2018-08-17T13:11:01.502Z,28.43
2018-08-17T13:13:30.526Z,28.05
2018-08-17T13:16:06.626Z,27.46
2018-08-17T13:18:37.408Z,27.40
2018-08-17T13:21:08.037Z,26.78
2018-08-17T13:23:36.749Z,27.80
2018-08-17T13:26:06.080Z,27.77
2018-08-17T13:28:35.044Z,28.91
2018-08-17T13:31:03.774Z,29.36
2018-08-17T13:33:32.579Z,29.30
2018-08-17T13:36:01.421Z,29.05
2018-08-17T13:38:30.454Z,30.26
2018-08-17T13:40:59.578Z,29.68
2018-08-17T13:43:28.676Z,29.83
2018-08-17T13:45:57.792Z,30.08
2018-08-17T13:48:26.754Z,31.07
2018-08-17T13:50:55.755Z,31.32
2018-08-17T13:53:24.530Z,30.81
2018-08-17T13:55:53.520Z,30.54
2018-08-17T13:58:22.464Z,30.51
2018-08-17T14:00:51.158Z,30.84
2018-08-17T14:03:20.006Z,29.88
2018-08-17T14:05:48.800Z,31.41
2018-08-17T14:08:17.990Z,31.75
2018-08-17T14:10:46.768Z,31.33
2018-08-17T14:13:15.879Z,30.60
2018-08-17T14:15:44.792Z,30.26
2018-08-17T14:18:13.725Z,27.94
2018-08-17T14:20:42.484Z,26.45
2018-08-17T14:23:11.519Z,24.62
2018-08-17T14:25:40.251Z,23.05
2018-08-17T14:28:09.341Z,21.58
2018-08-17T14:30:38.114Z,18.75
2018-08-17T14:33:06.887Z,17.95
2018-08-17T14:35:35.600Z,17.52
2018-08-17T14:38:04.760Z,16.86
2018-08-17T14:40:33.811Z,17.11
2018-08-17T14:43:02.871Z,16.40
2018-08-17T14:45:31.839Z,16.12
2018-08-17T14:48:00.837Z,15.83
2018-08-17T14:50:30.030Z,15.15
2018-08-17T14:52:59.038Z,15.94
2018-08-17T14:55:27.941Z,16.38
2018-08-17T14:57:56.713Z,16.09
2018-08-17T15:00:25.987Z,16.48
2018-08-17T15:02:54.786Z,16.47
2018-08-17T15:05:23.503Z,16.85
2018-08-17T15:07:52.578Z,17.33
2018-08-17T15:10:21.439Z,16.71
2018-08-17T15:12:50.818Z,17.09
2018-08-17T15:15:19.775Z,17.49
2018-08-17T15:17:48.912Z,16.91
2018-08-17T15:20:17.569Z,17.22
2018-08-17T15:22:46.344Z,18.19
2018-08-17T15:25:15.086Z,20.04
2018-08-17T15:27:43.996Z,21.55
2018-08-17T15:30:13.233Z,22.58
2018-08-17T15:32:42.675Z,23.51
2018-08-17T15:35:11.895Z,24.51
2018-08-17T15:37:41.093Z,25.03
2018-08-17T15:40:11.628Z,25.60
2018-08-17T15:42:41.315Z,27.28
2018-08-17T15:45:10.893Z,29.10
2018-08-17T15:47:39.930Z,30.63
2018-08-17T15:50:16.647Z,30.05
2018-08-17T15:52:45.819Z,31.93
2018-08-17T15:55:15.286Z,31.48
2018-08-17T15:57:44.502Z,31.06
2018-08-17T16:00:17.500Z,30.81
2018-08-17T16:02:46.295Z,31.52
2018-08-17T16:05:15.110Z,31.12
2018-08-17T16:07:44.001Z,31.68
2018-08-17T16:10:14.720Z,31.38
2018-08-17T16:12:43.907Z,31.89
2018-08-17T16:15:12.908Z,30.92
2018-08-17T16:17:41.938Z,30.29
2018-08-17T16:20:12.347Z,29.36
2018-08-17T16:22:42.076Z,28.08
2018-08-17T16:25:12.077Z,27.63
2018-08-17T16:27:41.543Z,26.95
2018-08-17T16:30:12.204Z,26.10
2018-08-17T16:32:41.020Z,25.61
2018-08-17T16:35:10.051Z,24.63
2018-08-17T16:37:48.276Z,24.04
2018-08-17T16:40:17.590Z,23.79
2018-08-17T16:42:50.360Z,24.02
2018-08-17T16:45:19.635Z,23.17
2018-08-17T16:47:48.546Z,22.90
2018-08-17T16:50:17.266Z,23.28
2018-08-17T16:52:46.208Z,22.41
2018-08-17T16:55:15.033Z,22.85
2018-08-17T16:57:43.894Z,24.72
2018-08-17T17:00:12.921Z,24.94
2018-08-17T17:02:41.576Z,25.19
2018-08-17T17:05:10.348Z,25.36
2018-08-17T17:07:39.429Z,25.75
2018-08-17T17:10:09.827Z,27.75
2018-08-17T17:12:38.907Z,27.84
2018-08-17T17:15:17.417Z,28.03
2018-08-17T17:17:54.747Z,28.76
2018-08-17T17:20:23.821Z,29.54
2018-08-17T17:22:52.764Z,31.69
2018-08-17T17:25:21.942Z,30.97
2018-08-17T17:27:50.785Z,31.22
2018-08-17T17:30:19.439Z,32.19
2018-08-17T17:32:48.337Z,32.88
2018-08-17T17:35:17.043Z,33.58
2018-08-17T17:37:46.616Z,34.03
2018-08-17T17:40:15.754Z,36.31
2018-08-17T17:42:44.867Z,38.05
2018-08-17T17:45:14.164Z,37.04
2018-08-17T17:47:43.175Z,38.90
2018-08-17T17:50:12.210Z,40.40
2018-08-17T17:52:40.979Z,42.72
2018-08-17T17:55:09.776Z,43.05
2018-08-17T17:57:38.579Z,44.20
2018-08-17T18:00:07.442Z,43.58
2018-08-17T18:02:36.120Z,44.52
2018-08-17T18:05:05.059Z,45.41
2018-08-17T18:07:38.970Z,47.13
2018-08-17T18:10:08.055Z,47.54
2018-08-17T18:12:36.946Z,48.13
2018-08-17T18:15:06.482Z,47.13
2018-08-17T18:17:35.652Z,47.55
2018-08-17T18:20:04.484Z,48.88
2018-08-17T18:22:33.321Z,47.97
2018-08-17T18:25:07.380Z,48.51
2018-08-17T18:27:36.648Z,50.42
2018-08-17T18:30:06.310Z,50.24
2018-08-17T18:32:35.057Z,50.36
2018-08-17T18:35:04.041Z,51.15
2018-08-17T18:37:32.774Z,50.94
2018-08-17T18:40:01.606Z,51.25
2018-08-17T18:42:30.361Z,51.60
2018-08-17T18:44:59.406Z,51.99
2018-08-17T18:47:28.233Z,52.12
2018-08-17T18:49:57.117Z,52.21
2018-08-17T18:52:26.328Z,52.76
2018-08-17T18:54:55.376Z,52.48
2018-08-17T18:57:24.240Z,52.28
2018-08-17T18:59:53.014Z,52.32
2018-08-17T19:02:21.787Z,53.02
2018-08-17T19:04:50.823Z,53.34
2018-08-17T19:07:19.689Z,53.48
2018-08-17T19:09:48.667Z,53.49
2018-08-17T19:12:18.228Z,54.51
2018-08-17T19:14:49.760Z,53.47
2018-08-17T19:17:23.594Z,54.39
2018-08-17T19:19:53.567Z,54.89
2018-08-17T19:22:22.714Z,54.53
2018-08-17T19:24:53.065Z,52.72
2018-08-17T19:27:41.083Z,52.72
2018-08-17T19:30:22.956Z,51.99
2018-08-17T19:32:52.857Z,51.53
2018-08-17T19:35:21.947Z,52.01
2018-08-17T19:37:51.792Z,51.25
2018-08-17T19:40:21.408Z,51.49
2018-08-17T19:42:50.328Z,51.47
2018-08-17T19:45:19.893Z,51.58
2018-08-17T19:47:48.934Z,52.45
2018-08-17T19:50:18.106Z,53.18
2018-08-17T19:52:47.259Z,53.40
2018-08-17T19:55:16.042Z,53.24
2018-08-17T19:57:44.769Z,53.65
2018-08-17T20:00:14.117Z,54.28
2018-08-17T20:02:43.082Z,53.74
2018-08-17T20:05:12.012Z,54.45
2018-08-17T20:07:41.064Z,54.44
2018-08-17T20:10:11.617Z,53.87
2018-08-17T20:12:40.731Z,53.72
2018-08-17T20:15:09.741Z,53.91
2018-08-17T20:17:39.125Z,54.45
2018-08-17T20:20:11.267Z,53.91
2018-08-17T20:22:40.208Z,53.32
2018-08-17T20:25:12.801Z,54.64
2018-08-17T20:27:41.746Z,54.14
2018-08-17T20:30:15.780Z,53.95
2018-08-17T20:32:44.745Z,54.49
2018-08-17T20:35:13.770Z,55.78
2018-08-17T20:37:49.857Z,57.48
2018-08-17T20:40:19.148Z,59.54
2018-08-17T20:42:48.303Z,60.05
2018-08-17T20:45:17.616Z,60.15
2018-08-17T20:47:46.579Z,60.44
2018-08-17T20:50:17.243Z,60.82
2018-08-17T20:52:52.326Z,61.37
2018-08-17T20:55:21.474Z,62.33
2018-08-17T20:57:54.571Z,63.49
2018-08-17T21:00:24.779Z,63.28
2018-08-17T21:02:53.627Z,63.41
2018-08-17T21:05:22.624Z,63.68
2018-08-17T21:07:51.727Z,63.62
2018-08-17T21:10:20.862Z,64.26
2018-08-17T21:12:50.085Z,64.28
2018-08-17T21:15:19.323Z,62.46
2018-08-17T21:17:48.937Z,61.89
2018-08-17T21:20:17.870Z,62.57
2018-08-17T21:22:47.183Z,64.02
2018-08-17T21:25:16.075Z,62.84
2018-08-17T21:27:44.739Z,63.11
2018-08-17T21:30:13.476Z,64.57
2018-08-17T21:32:42.444Z,65.15
2018-08-17T21:35:11.346Z,65.47
2018-08-17T21:37:40.173Z,66.41
2018-08-17T21:40:16.591Z,66.97
2018-08-17T21:42:46.682Z,66.89
2018-08-17T21:45:15.814Z,67.22
2018-08-17T21:47:44.898Z,67.68
2018-08-17T21:50:14.778Z,68.18
2018-08-17T21:52:44.880Z,67.43
2018-08-17T21:55:13.886Z,67.28
2018-08-17T21:57:42.777Z,66.62
2018-08-17T22:00:17.626Z,65.67
2018-08-17T22:02:46.587Z,65.02
2018-08-17T22:05:34.352Z,65.08
2018-08-17T22:08:03.360Z,64.28
2018-08-17T22:10:32.542Z,63.82
2018-08-17T22:13:01.537Z,63.91
2018-08-17T22:15:31.135Z,63.99
2018-08-17T22:18:00.003Z,64.29
2018-08-17T22:20:29.087Z,64.35
2018-08-17T22:22:58.963Z,64.89
2018-08-17T22:25:27.731Z,65.25
2018-08-17T22:27:56.545Z,65.23
2018-08-17T22:30:26.504Z,64.89
2018-08-17T22:32:55.216Z,65.14
2018-08-17T22:35:24.317Z,65.06
2018-08-17T22:37:53.482Z,65.14
2018-08-17T22:40:22.434Z,64.67
2018-08-17T22:42:51.912Z,64.85
2018-08-17T22:45:20.779Z,65.26
2018-08-17T22:47:49.904Z,66.37
2018-08-17T22:50:19.130Z,67.26
2018-08-17T22:52:48.303Z,67.19
2018-08-17T22:55:17.058Z,67.03
2018-08-17T22:57:45.710Z,66.42
2018-08-17T23:00:22.905Z,66.33
2018-08-17T23:02:52.880Z,66.37
2018-08-17T23:05:23.205Z,66.83
2018-08-17T23:07:52.529Z,66.67
2018-08-17T23:10:23.676Z,66.24
2018-08-17T23:12:53.608Z,66.35
2018-08-17T23:15:22.652Z,66.48
2018-08-17T23:17:53.856Z,66.64
2018-08-17T23:20:28.029Z,67.91
2018-08-17T23:22:57.995Z,69.38
2018-08-17T23:25:26.896Z,69.83
2018-08-17T23:27:55.566Z,70.14
2018-08-17T23:30:24.544Z,69.37
2018-08-17T23:32:53.694Z,67.90
2018-08-17T23:35:22.909Z,69.12
2018-08-17T23:37:51.836Z,69.12
2018-08-17T23:40:20.800Z,68.25
2018-08-17T23:42:49.632Z,67.67
2018-08-17T23:45:18.987Z,68.43
2018-08-17T23:47:48.179Z,69.54
2018-08-17T23:50:17.584Z,69.24
2018-08-17T23:52:46.338Z,68.99
2018-08-17T23:55:16.908Z,69.00
2018-08-17T23:57:45.672Z,69.05
